Strona główna
METAR-TAF:

METAR-TAF

Lotnisko :

Port lotniczy Mar del Plata

Mar del Plata, Argentyna

Szerokość geograficzna: 37-56S, Długość geograficzna: 057-35W, wysokość: 18 m

Aktualna obserwacja pogody

Raport powstał 12 minut temu, godzina 07:00 UTC
Wiatr 8 kt od północny zachód
Temperatura 9°C
Wilgotność 87%
Ciśnienie 1021 hPa
Widzialność 10 km lub więcej
Brak chmur poniżej 1500 m i brak chmur cumulonimbus

METAR: SAZM 250700Z 32008KT CAVOK 09/07 Q1021

czas: 04:12 (07:12 UTC)

Prognoza

Raport powstał 2 godziny i 12 minut temu, godzina 05:00 UTC
Prognoza ważna od 25 godzina 06 UTC do 26 godzina 06 UTC
Wiatr 5 kt od północny zachód
Widzialność: 7000 m
Stopniowe zmiany
od 25 godzina 07 UTC do 25 godzina 09 UTC
Widzialność: 4000 m
zamglenie
Stopniowe zmiany
od 25 godzina 12 UTC do 25 godzina 14 UTC
Wiatr 10 kt od północno-północny zachód
Widzialność 10 km lub więcej
Brak chmur poniżej 1500 m i brak chmur cumulonimbus

TAF: SAZM 250500Z 2506/2606 32005KT 7000 NSC TX19/2518Z TN04/2510Z BECMG 2507/2509 4000 BR BECMG 2512/2514 34010KT CAVOK

Obserwacja i prognoza pogody dla ponad 4000 lotnisk (raport METAR i TAF).

Dostępne stacje oznaczono żółtymi i czerwonymi punktami na mapie.

Najedź kursorem aby zobaczyć nazwę stacji.

Kliknij aby zobaczyć obserwacje i prognozy pogody.

Aby zmienić mapę: kliknij na zielony przycisk z czarnym krzyżykiem, aby powiększyć; na zielony przycisk z myślnikiem, aby pomniejszyć; na zielone strzałki, aby przejść do map sąsiednich.


METAR-TAF: